sensor_id;sensor_type;location;lat;lon;timestamp;P1;durP1;ratioP1;P2;durP2;ratioP2
7497;SDS011;3790;48.806;9.140;2023-03-26T00:03:11;5.03;;;1.70;;
7497;SDS011;3790;48.806;9.140;2023-03-26T00:08:12;2.33;;;0.87;;
7497;SDS011;3790;48.806;9.140;2023-03-26T00:13:14;2.77;;;1.20;;
7497;SDS011;3790;48.806;9.140;2023-03-26T00:18:15;2.73;;;0.90;;
7497;SDS011;3790;48.806;9.140;2023-03-26T00:23:16;3.20;;;1.13;;
7497;SDS011;3790;48.806;9.140;2023-03-26T00:28:17;2.20;;;1.00;;
7497;SDS011;3790;48.806;9.140;2023-03-26T00:33:20;1.50;;;0.80;;
7497;SDS011;3790;48.806;9.140;2023-03-26T00:38:21;3.37;;;1.30;;
7497;SDS011;3790;48.806;9.140;2023-03-26T00:43:22;3.20;;;1.10;;
7497;SDS011;3790;48.806;9.140;2023-03-26T00:48:25;6.30;;;1.83;;
7497;SDS011;3790;48.806;9.140;2023-03-26T00:53:28;3.60;;;1.30;;
7497;SDS011;3790;48.806;9.140;2023-03-26T00:58:29;2.17;;;1.07;;
7497;SDS011;3790;48.806;9.140;2023-03-26T01:03:30;2.07;;;1.07;;
7497;SDS011;3790;48.806;9.140;2023-03-26T01:08:44;2.23;;;1.10;;
7497;SDS011;3790;48.806;9.140;2023-03-26T01:13:50;2.63;;;1.30;;
7497;SDS011;3790;48.806;9.140;2023-03-26T01:18:53;2.17;;;1.10;;
7497;SDS011;3790;48.806;9.140;2023-03-26T01:24:01;2.27;;;1.17;;
7497;SDS011;3790;48.806;9.140;2023-03-26T01:29:04;2.40;;;1.00;;
7497;SDS011;3790;48.806;9.140;2023-03-26T01:34:19;3.57;;;1.67;;
7497;SDS011;3790;48.806;9.140;2023-03-26T01:39:34;3.43;;;1.20;;
7497;SDS011;3790;48.806;9.140;2023-03-26T01:44:58;3.10;;;1.50;;
7497;SDS011;3790;48.806;9.140;2023-03-26T01:50:06;2.60;;;0.90;;
7497;SDS011;3790;48.806;9.140;2023-03-26T01:55:07;3.43;;;1.23;;
7497;SDS011;3790;48.806;9.140;2023-03-26T02:05:38;2.33;;;1.00;;
7497;SDS011;3790;48.806;9.140;2023-03-26T02:10:43;2.13;;;0.90;;
7497;SDS011;3790;48.806;9.140;2023-03-26T02:15:57;3.97;;;1.23;;
7497;SDS011;3790;48.806;9.140;2023-03-26T02:21:11;3.47;;;1.27;;
7497;SDS011;3790;48.806;9.140;2023-03-26T02:26:15;2.67;;;1.23;;
7497;SDS011;3790;48.806;9.140;2023-03-26T02:31:17;3.40;;;1.07;;
7497;SDS011;3790;48.806;9.140;2023-03-26T02:36:21;3.73;;;1.10;;
7497;SDS011;3790;48.806;9.140;2023-03-26T02:41:26;2.87;;;1.20;;
7497;SDS011;3790;48.806;9.140;2023-03-26T02:46:26;2.30;;;1.10;;
7497;SDS011;3790;48.806;9.140;2023-03-26T02:51:27;7.03;;;1.50;;
7497;SDS011;3790;48.806;9.140;2023-03-26T02:56:27;2.43;;;1.20;;
7497;SDS011;3790;48.806;9.140;2023-03-26T03:01:28;2.83;;;1.20;;
7497;SDS011;3790;48.806;9.140;2023-03-26T03:06:29;2.70;;;0.90;;
7497;SDS011;3790;48.806;9.140;2023-03-26T03:11:31;3.43;;;1.00;;
7497;SDS011;3790;48.806;9.140;2023-03-26T03:16:31;2.10;;;0.93;;
7497;SDS011;3790;48.806;9.140;2023-03-26T03:21:32;3.43;;;1.50;;
7497;SDS011;3790;48.806;9.140;2023-03-26T03:26:33;4.87;;;1.43;;
7497;SDS011;3790;48.806;9.140;2023-03-26T03:31:35;3.67;;;1.53;;
7497;SDS011;3790;48.806;9.140;2023-03-26T03:36:35;2.53;;;1.27;;
7497;SDS011;3790;48.806;9.140;2023-03-26T03:41:37;1.77;;;0.83;;
7497;SDS011;3790;48.806;9.140;2023-03-26T03:46:37;5.23;;;1.50;;
7497;SDS011;3790;48.806;9.140;2023-03-26T03:51:38;7.73;;;1.67;;
7497;SDS011;3790;48.806;9.140;2023-03-26T03:56:38;3.40;;;1.37;;
7497;SDS011;3790;48.806;9.140;2023-03-26T04:01:39;4.37;;;1.40;;
7497;SDS011;3790;48.806;9.140;2023-03-26T04:06:42;2.17;;;0.93;;
7497;SDS011;3790;48.806;9.140;2023-03-26T04:11:42;3.53;;;1.30;;
7497;SDS011;3790;48.806;9.140;2023-03-26T04:16:43;5.10;;;1.60;;
7497;SDS011;3790;48.806;9.140;2023-03-26T04:21:44;3.67;;;1.47;;
7497;SDS011;3790;48.806;9.140;2023-03-26T04:26:44;2.57;;;1.37;;
7497;SDS011;3790;48.806;9.140;2023-03-26T04:31:46;5.30;;;1.27;;
7497;SDS011;3790;48.806;9.140;2023-03-26T04:36:57;6.37;;;1.60;;
7497;SDS011;3790;48.806;9.140;2023-03-26T04:42:00;2.80;;;1.20;;
7497;SDS011;3790;48.806;9.140;2023-03-26T04:47:00;3.40;;;1.30;;
7497;SDS011;3790;48.806;9.140;2023-03-26T04:52:01;4.07;;;1.40;;
7497;SDS011;3790;48.806;9.140;2023-03-26T04:57:02;2.97;;;1.43;;
7497;SDS011;3790;48.806;9.140;2023-03-26T05:02:11;3.90;;;1.40;;
7497;SDS011;3790;48.806;9.140;2023-03-26T05:07:15;3.17;;;1.17;;
7497;SDS011;3790;48.806;9.140;2023-03-26T05:12:18;4.63;;;1.90;;
7497;SDS011;3790;48.806;9.140;2023-03-26T05:17:21;3.43;;;1.37;;
7497;SDS011;3790;48.806;9.140;2023-03-26T05:22:23;4.37;;;1.40;;
7497;SDS011;3790;48.806;9.140;2023-03-26T05:27:23;7.10;;;1.47;;
7497;SDS011;3790;48.806;9.140;2023-03-26T05:32:24;3.40;;;1.50;;
7497;SDS011;3790;48.806;9.140;2023-03-26T05:37:27;7.07;;;1.77;;
7497;SDS011;3790;48.806;9.140;2023-03-26T05:42:29;3.67;;;1.40;;
7497;SDS011;3790;48.806;9.140;2023-03-26T05:47:30;2.67;;;1.13;;
7497;SDS011;3790;48.806;9.140;2023-03-26T05:52:31;3.87;;;1.60;;
7497;SDS011;3790;48.806;9.140;2023-03-26T05:57:32;3.10;;;1.53;;
7497;SDS011;3790;48.806;9.140;2023-03-26T06:02:34;5.03;;;1.70;;
7497;SDS011;3790;48.806;9.140;2023-03-26T06:07:35;2.77;;;1.30;;
7497;SDS011;3790;48.806;9.140;2023-03-26T06:12:35;3.67;;;1.33;;
7497;SDS011;3790;48.806;9.140;2023-03-26T06:17:36;3.90;;;1.37;;
7497;SDS011;3790;48.806;9.140;2023-03-26T06:22:37;3.03;;;1.27;;
7497;SDS011;3790;48.806;9.140;2023-03-26T06:27:37;2.70;;;1.10;;
7497;SDS011;3790;48.806;9.140;2023-03-26T06:32:38;3.13;;;1.50;;
7497;SDS011;3790;48.806;9.140;2023-03-26T06:37:38;4.27;;;1.60;;
7497;SDS011;3790;48.806;9.140;2023-03-26T06:42:39;3.30;;;1.50;;
7497;SDS011;3790;48.806;9.140;2023-03-26T06:47:39;2.73;;;1.20;;
7497;SDS011;3790;48.806;9.140;2023-03-26T06:52:40;3.40;;;1.50;;
7497;SDS011;3790;48.806;9.140;2023-03-26T06:57:40;2.30;;;0.90;;
7497;SDS011;3790;48.806;9.140;2023-03-26T07:02:44;4.73;;;1.63;;
7497;SDS011;3790;48.806;9.140;2023-03-26T07:07:45;2.63;;;1.23;;
7497;SDS011;3790;48.806;9.140;2023-03-26T07:12:46;2.27;;;1.20;;
7497;SDS011;3790;48.806;9.140;2023-03-26T07:17:46;3.33;;;1.10;;
7497;SDS011;3790;48.806;9.140;2023-03-26T07:22:47;3.50;;;1.20;;
7497;SDS011;3790;48.806;9.140;2023-03-26T07:33:22;7.47;;;1.77;;
7497;SDS011;3790;48.806;9.140;2023-03-26T07:38:46;2.30;;;1.00;;
7497;SDS011;3790;48.806;9.140;2023-03-26T07:49:28;6.20;;;1.70;;
7497;SDS011;3790;48.806;9.140;2023-03-26T07:54:30;5.93;;;1.83;;
7497;SDS011;3790;48.806;9.140;2023-03-26T08:10:02;3.60;;;1.87;;
7497;SDS011;3790;48.806;9.140;2023-03-26T08:15:20;4.33;;;3.03;;
7497;SDS011;3790;48.806;9.140;2023-03-26T08:20:44;4.43;;;2.10;;
7497;SDS011;3790;48.806;9.140;2023-03-26T08:25:59;4.10;;;1.80;;
7497;SDS011;3790;48.806;9.140;2023-03-26T08:31:03;5.07;;;1.57;;
7497;SDS011;3790;48.806;9.140;2023-03-26T08:36:04;4.03;;;2.20;;
7497;SDS011;3790;48.806;9.140;2023-03-26T08:46:11;5.97;;;1.90;;
7497;SDS011;3790;48.806;9.140;2023-03-26T08:52:03;2.33;;;1.43;;
7497;SDS011;3790;48.806;9.140;2023-03-26T09:08:29;3.80;;;1.83;;
7497;SDS011;3790;48.806;9.140;2023-03-26T09:14:07;2.87;;;1.50;;
7497;SDS011;3790;48.806;9.140;2023-03-26T09:25:03;2.47;;;1.20;;
7497;SDS011;3790;48.806;9.140;2023-03-26T09:35:32;4.13;;;1.50;;
7497;SDS011;3790;48.806;9.140;2023-03-26T09:40:54;1.77;;;0.87;;
7497;SDS011;3790;48.806;9.140;2023-03-26T10:07:55;1.87;;;0.90;;
7497;SDS011;3790;48.806;9.140;2023-03-26T10:23:58;1.43;;;0.70;;
7497;SDS011;3790;48.806;9.140;2023-03-26T10:39:48;1.50;;;0.70;;
7497;SDS011;3790;48.806;9.140;2023-03-26T10:55:56;0.70;;;0.50;;
7497;SDS011;3790;48.806;9.140;2023-03-26T11:01:14;1.80;;;0.70;;
7497;SDS011;3790;48.806;9.140;2023-03-26T11:06:43;0.80;;;0.50;;
7497;SDS011;3790;48.806;9.140;2023-03-26T11:12:06;0.93;;;0.47;;
7497;SDS011;3790;48.806;9.140;2023-03-26T11:33:34;1.20;;;0.55;;
7497;SDS011;3790;48.806;9.140;2023-03-26T11:38:41;0.85;;;0.43;;
7497;SDS011;3790;48.806;9.140;2023-03-26T11:43:46;0.40;;;0.40;;
7497;SDS011;3790;48.806;9.140;2023-03-26T11:48:55;0.70;;;0.50;;
7497;SDS011;3790;48.806;9.140;2023-03-26T11:53:59;1.25;;;0.77;;
7497;SDS011;3790;48.806;9.140;2023-03-26T11:59:17;1.25;;;0.60;;
7497;SDS011;3790;48.806;9.140;2023-03-26T12:04:41;1.40;;;0.55;;
7497;SDS011;3790;48.806;9.140;2023-03-26T12:09:55;1.98;;;0.55;;
7497;SDS011;3790;48.806;9.140;2023-03-26T12:14:57;1.03;;;0.50;;
7497;SDS011;3790;48.806;9.140;2023-03-26T12:19:58;1.90;;;0.80;;
7497;SDS011;3790;48.806;9.140;2023-03-26T12:25:00;1.27;;;0.60;;
7497;SDS011;3790;48.806;9.140;2023-03-26T12:35:23;1.00;;;0.50;;
7497;SDS011;3790;48.806;9.140;2023-03-26T12:40:35;1.87;;;0.83;;
7497;SDS011;3790;48.806;9.140;2023-03-26T12:45:39;1.03;;;0.50;;
7497;SDS011;3790;48.806;9.140;2023-03-26T12:51:04;2.40;;;0.67;;
7497;SDS011;3790;48.806;9.140;2023-03-26T12:56:27;1.43;;;0.70;;
7497;SDS011;3790;48.806;9.140;2023-03-26T13:02:18;1.75;;;0.73;;
7497;SDS011;3790;48.806;9.140;2023-03-26T13:07:24;1.23;;;0.60;;
7497;SDS011;3790;48.806;9.140;2023-03-26T13:50:56;2.28;;;0.93;;
7497;SDS011;3790;48.806;9.140;2023-03-26T13:56:32;2.72;;;1.20;;
7497;SDS011;3790;48.806;9.140;2023-03-26T14:01:43;2.78;;;0.90;;
7497;SDS011;3790;48.806;9.140;2023-03-26T14:07:04;1.75;;;0.90;;
7497;SDS011;3790;48.806;9.140;2023-03-26T14:33:49;1.20;;;0.35;;
7497;SDS011;3790;48.806;9.140;2023-03-26T14:44:42;0.80;;;0.43;;
7497;SDS011;3790;48.806;9.140;2023-03-26T15:12:05;0.70;;;0.40;;
7497;SDS011;3790;48.806;9.140;2023-03-26T15:17:30;0.73;;;0.37;;
7497;SDS011;3790;48.806;9.140;2023-03-26T15:23:16;0.30;;;0.30;;
7497;SDS011;3790;48.806;9.140;2023-03-26T15:39:25;0.37;;;0.20;;
7497;SDS011;3790;48.806;9.140;2023-03-26T15:44:52;0.53;;;0.30;;
7497;SDS011;3790;48.806;9.140;2023-03-26T16:00:55;0.33;;;0.20;;
7497;SDS011;3790;48.806;9.140;2023-03-26T16:17:03;0.20;;;0.10;;
7497;SDS011;3790;48.806;9.140;2023-03-26T16:22:06;0.50;;;0.20;;
7497;SDS011;3790;48.806;9.140;2023-03-26T16:32:21;0.10;;;0.10;;
7497;SDS011;3790;48.806;9.140;2023-03-26T16:42:40;0.10;;;0.10;;
7497;SDS011;3790;48.806;9.140;2023-03-26T17:04:08;2.03;;;0.27;;
7497;SDS011;3790;48.806;9.140;2023-03-26T17:15:03;0.17;;;0.10;;
7497;SDS011;3790;48.806;9.140;2023-03-26T17:20:41;0.37;;;0.20;;
7497;SDS011;3790;48.806;9.140;2023-03-26T17:25:55;0.10;;;0.10;;
7497;SDS011;3790;48.806;9.140;2023-03-26T17:31:03;0.30;;;0.20;;
7497;SDS011;3790;48.806;9.140;2023-03-26T17:41:11;0.10;;;0.10;;
7497;SDS011;3790;48.806;9.140;2023-03-26T17:46:35;0.20;;;0.20;;
7497;SDS011;3790;48.806;9.140;2023-03-26T17:51:40;0.77;;;0.30;;
7497;SDS011;3790;48.806;9.140;2023-03-26T17:56:47;2.07;;;0.40;;
7497;SDS011;3790;48.806;9.140;2023-03-26T18:01:59;3.40;;;0.30;;
7497;SDS011;3790;48.806;9.140;2023-03-26T18:17:50;0.20;;;0.20;;
7497;SDS011;3790;48.806;9.140;2023-03-26T18:23:00;0.37;;;0.20;;
7497;SDS011;3790;48.806;9.140;2023-03-26T18:28:10;0.73;;;0.33;;
7497;SDS011;3790;48.806;9.140;2023-03-26T18:33:13;1.30;;;0.30;;
7497;SDS011;3790;48.806;9.140;2023-03-26T18:38:15;0.80;;;0.40;;
7497;SDS011;3790;48.806;9.140;2023-03-26T18:43:19;0.63;;;0.40;;
7497;SDS011;3790;48.806;9.140;2023-03-26T18:48:21;0.83;;;0.40;;
7497;SDS011;3790;48.806;9.140;2023-03-26T18:53:25;1.00;;;0.50;;
7497;SDS011;3790;48.806;9.140;2023-03-26T18:58:33;1.33;;;0.43;;
7497;SDS011;3790;48.806;9.140;2023-03-26T19:03:38;0.50;;;0.30;;
7497;SDS011;3790;48.806;9.140;2023-03-26T19:08:43;0.40;;;0.30;;
7497;SDS011;3790;48.806;9.140;2023-03-26T19:13:48;0.63;;;0.37;;
7497;SDS011;3790;48.806;9.140;2023-03-26T19:18:57;0.97;;;0.40;;
7497;SDS011;3790;48.806;9.140;2023-03-26T19:24:03;0.87;;;0.40;;
7497;SDS011;3790;48.806;9.140;2023-03-26T19:29:04;0.40;;;0.30;;
7497;SDS011;3790;48.806;9.140;2023-03-26T19:39:16;1.67;;;0.50;;
7497;SDS011;3790;48.806;9.140;2023-03-26T19:54:54;0.50;;;0.30;;
7497;SDS011;3790;48.806;9.140;2023-03-26T20:00:04;0.50;;;0.30;;
7497;SDS011;3790;48.806;9.140;2023-03-26T20:05:19;0.63;;;0.43;;
7497;SDS011;3790;48.806;9.140;2023-03-26T20:10:27;1.30;;;0.40;;
7497;SDS011;3790;48.806;9.140;2023-03-26T20:15:29;0.30;;;0.20;;
7497;SDS011;3790;48.806;9.140;2023-03-26T20:20:32;2.17;;;0.70;;
7497;SDS011;3790;48.806;9.140;2023-03-26T20:25:33;1.60;;;1.00;;
7497;SDS011;3790;48.806;9.140;2023-03-26T20:30:33;1.87;;;0.40;;
7497;SDS011;3790;48.806;9.140;2023-03-26T20:35:34;0.40;;;0.30;;
7497;SDS011;3790;48.806;9.140;2023-03-26T20:40:36;0.43;;;0.27;;
7497;SDS011;3790;48.806;9.140;2023-03-26T20:45:37;0.47;;;0.37;;
7497;SDS011;3790;48.806;9.140;2023-03-26T20:50:38;1.67;;;0.43;;
7497;SDS011;3790;48.806;9.140;2023-03-26T20:55:42;0.33;;;0.20;;
7497;SDS011;3790;48.806;9.140;2023-03-26T21:00:43;1.23;;;0.40;;
7497;SDS011;3790;48.806;9.140;2023-03-26T21:05:45;0.50;;;0.30;;
7497;SDS011;3790;48.806;9.140;2023-03-26T21:10:47;0.70;;;0.30;;
7497;SDS011;3790;48.806;9.140;2023-03-26T21:15:48;0.77;;;0.40;;
7497;SDS011;3790;48.806;9.140;2023-03-26T21:20:56;1.80;;;0.47;;
7497;SDS011;3790;48.806;9.140;2023-03-26T21:26:25;1.27;;;0.50;;
7497;SDS011;3790;48.806;9.140;2023-03-26T21:31:32;0.93;;;0.40;;
7497;SDS011;3790;48.806;9.140;2023-03-26T21:36:35;0.67;;;0.47;;
7497;SDS011;3790;48.806;9.140;2023-03-26T21:46:43;0.57;;;0.30;;
7497;SDS011;3790;48.806;9.140;2023-03-26T21:51:46;1.20;;;0.57;;
7497;SDS011;3790;48.806;9.140;2023-03-26T22:02:06;1.87;;;0.90;;
7497;SDS011;3790;48.806;9.140;2023-03-26T22:07:14;1.10;;;0.60;;
7497;SDS011;3790;48.806;9.140;2023-03-26T22:12:21;2.03;;;0.90;;
7497;SDS011;3790;48.806;9.140;2023-03-26T22:17:24;0.97;;;0.63;;
7497;SDS011;3790;48.806;9.140;2023-03-26T22:22:25;2.13;;;1.07;;
7497;SDS011;3790;48.806;9.140;2023-03-26T22:27:27;2.73;;;1.30;;
7497;SDS011;3790;48.806;9.140;2023-03-26T22:32:27;3.00;;;1.53;;
7497;SDS011;3790;48.806;9.140;2023-03-26T22:37:28;2.63;;;0.93;;
7497;SDS011;3790;48.806;9.140;2023-03-26T22:42:29;2.33;;;0.80;;
7497;SDS011;3790;48.806;9.140;2023-03-26T22:47:30;0.90;;;0.63;;
7497;SDS011;3790;48.806;9.140;2023-03-26T22:52:33;3.77;;;1.40;;
7497;SDS011;3790;48.806;9.140;2023-03-26T22:57:35;3.63;;;1.40;;
7497;SDS011;3790;48.806;9.140;2023-03-26T23:02:36;1.73;;;0.87;;
7497;SDS011;3790;48.806;9.140;2023-03-26T23:07:36;0.47;;;0.40;;
7497;SDS011;3790;48.806;9.140;2023-03-26T23:12:38;1.67;;;0.77;;
7497;SDS011;3790;48.806;9.140;2023-03-26T23:17:39;1.03;;;0.63;;
7497;SDS011;3790;48.806;9.140;2023-03-26T23:22:40;0.97;;;0.60;;
7497;SDS011;3790;48.806;9.140;2023-03-26T23:27:41;1.60;;;0.80;;
7497;SDS011;3790;48.806;9.140;2023-03-26T23:32:42;1.37;;;0.50;;
7497;SDS011;3790;48.806;9.140;2023-03-26T23:37:43;0.97;;;0.70;;
7497;SDS011;3790;48.806;9.140;2023-03-26T23:42:43;1.50;;;0.80;;
7497;SDS011;3790;48.806;9.140;2023-03-26T23:47:44;1.23;;;0.80;;
7497;SDS011;3790;48.806;9.140;2023-03-26T23:52:45;1.90;;;0.87;;
7497;SDS011;3790;48.806;9.140;2023-03-26T23:57:46;1.03;;;0.63;;
